Norwood, Minnesota
Current Conditions -  °F | °C
As of 2:54 AM on Friday 24 Oct 2014 (Local Time) from KGYL Reporting Station
Clear Clear  
Wind Chill: 46°   Ceiling: Unl
Heat Index: 48°   Visibility: 10mi
Dew Point: 42°   Wind: 6mph
Humidity: 78%   Direction: 140°SE
Pressure: 29.93"   Gusts: NA
Location:  44.77°N, 93.93°W
Report Text: KGYL 240754Z AUTO 14005KT 10SM CLR 09/05 A2993 RMK AO2 T00910054
Loading
Personal Weather Stations






























Interactive Weather Map
Tropical Storm Tracking
New forecast layout! Learn more

10-Day Weather Forecast

Advertisements
Track Severe Weather on mobile